createdAt,value
2018-03-29T00:00:08.195Z,6.52
2018-03-29T00:02:36.544Z,6.49
2018-03-29T00:05:04.880Z,6.48
2018-03-29T00:07:33.973Z,6.47
2018-03-29T00:10:02.307Z,6.49
2018-03-29T00:12:30.795Z,6.54
2018-03-29T00:14:59.163Z,6.55
2018-03-29T00:17:28.283Z,6.52
2018-03-29T00:19:56.595Z,6.54
2018-03-29T00:22:24.925Z,6.55
2018-03-29T00:24:54.035Z,6.54
2018-03-29T00:27:22.373Z,6.55
2018-03-29T00:29:51.507Z,6.57
2018-03-29T00:32:20.638Z,6.57
2018-03-29T00:34:49.009Z,6.59
2018-03-29T00:37:17.373Z,6.61
2018-03-29T00:39:46.470Z,6.67
2018-03-29T00:42:15.597Z,6.70
2018-03-29T00:44:43.930Z,6.71
2018-03-29T00:47:12.273Z,6.72
2018-03-29T00:49:40.615Z,6.72
2018-03-29T00:52:08.963Z,6.75
2018-03-29T00:54:37.287Z,6.77
2018-03-29T00:57:05.644Z,6.77
2018-03-29T00:59:34.733Z,6.81
2018-03-29T01:02:03.116Z,6.85
2018-03-29T01:04:32.367Z,6.86
2018-03-29T01:07:00.711Z,6.87
2018-03-29T01:09:29.841Z,6.88
2018-03-29T01:11:58.287Z,6.87
2018-03-29T01:14:27.427Z,6.88
2018-03-29T01:16:55.766Z,6.90
2018-03-29T01:19:24.089Z,6.93
2018-03-29T01:21:52.433Z,6.98
2018-03-29T01:24:20.845Z,7.02
2018-03-29T01:26:49.279Z,7.05
2018-03-29T01:29:17.667Z,7.07
2018-03-29T01:31:46.840Z,7.04
2018-03-29T01:34:15.185Z,7.06
2018-03-29T01:36:43.531Z,7.07
2018-03-29T01:39:11.895Z,7.06
2018-03-29T01:41:40.271Z,7.08
2018-03-29T01:44:08.649Z,7.05
2018-03-29T01:46:37.743Z,7.06
2018-03-29T01:49:06.122Z,7.02
2018-03-29T01:51:34.505Z,7.00
2018-03-29T01:54:02.949Z,6.97
2018-03-29T01:56:32.055Z,6.94
2018-03-29T01:59:01.205Z,6.95
2018-03-29T02:01:29.541Z,6.91
2018-03-29T02:03:57.864Z,6.90
2018-03-29T02:06:27.042Z,6.90
2018-03-29T02:08:55.443Z,6.89
2018-03-29T02:11:23.809Z,6.87
2018-03-29T02:13:52.265Z,6.86
2018-03-29T02:16:20.718Z,6.86
2018-03-29T02:18:49.068Z,6.92
2018-03-29T02:21:17.424Z,6.99
2018-03-29T02:23:45.776Z,7.02
2018-03-29T02:26:14.874Z,7.06
2018-03-29T02:28:43.229Z,7.06
2018-03-29T02:31:11.542Z,7.04
2018-03-29T02:33:40.679Z,7.05
2018-03-29T02:36:09.202Z,7.02
2018-03-29T02:38:37.560Z,7.02
2018-03-29T02:41:05.909Z,7.04
2018-03-29T02:43:34.253Z,7.08
2018-03-29T02:46:02.615Z,7.08
2018-03-29T02:48:30.954Z,7.08
2018-03-29T02:51:00.099Z,7.04
2018-03-29T02:53:28.459Z,7.02
2018-03-29T02:55:56.782Z,6.97
2018-03-29T02:58:25.130Z,6.94
2018-03-29T03:00:53.492Z,6.93
2018-03-29T03:03:22.603Z,6.91
2018-03-29T03:05:50.969Z,6.91
2018-03-29T03:08:19.314Z,6.94
2018-03-29T03:10:48.438Z,6.94
2018-03-29T03:13:16.765Z,6.94
2018-03-29T03:15:45.887Z,6.92
2018-03-29T03:18:14.214Z,6.89
2018-03-29T03:20:42.655Z,6.91
2018-03-29T03:23:11.061Z,6.93
2018-03-29T03:25:39.396Z,6.96
2018-03-29T03:28:07.776Z,6.91
2018-03-29T03:30:36.184Z,6.85
2018-03-29T03:33:05.281Z,6.79
2018-03-29T03:35:34.364Z,6.72
2018-03-29T03:38:02.723Z,6.64
2018-03-29T03:40:31.085Z,6.53
2018-03-29T03:42:59.501Z,6.40
2018-03-29T03:45:27.845Z,6.32
2018-03-29T03:47:57.071Z,6.27
2018-03-29T03:50:25.434Z,6.21
2018-03-29T03:52:53.757Z,6.16
2018-03-29T03:55:22.088Z,6.12
2018-03-29T03:57:50.671Z,6.09
2018-03-29T04:00:19.001Z,6.05
2018-03-29T04:02:47.391Z,6.05
2018-03-29T04:05:15.723Z,6.11
2018-03-29T04:07:44.876Z,6.13
2018-03-29T04:10:13.210Z,6.09
2018-03-29T04:12:41.598Z,6.06
2018-03-29T04:15:10.000Z,6.02
2018-03-29T04:17:38.504Z,6.03
2018-03-29T04:20:08.486Z,6.07
2018-03-29T04:22:36.851Z,6.10
2018-03-29T04:25:05.173Z,6.18
2018-03-29T04:27:33.645Z,6.27
2018-03-29T04:30:02.024Z,6.32
2018-03-29T04:32:30.395Z,6.36
2018-03-29T04:34:58.805Z,6.35
2018-03-29T04:37:27.177Z,6.29
2018-03-29T04:39:55.530Z,6.30
2018-03-29T04:42:23.944Z,6.34
2018-03-29T04:44:52.289Z,6.34
2018-03-29T04:47:21.476Z,6.33
2018-03-29T04:49:50.625Z,6.28
2018-03-29T04:52:19.091Z,6.19
2018-03-29T04:54:47.450Z,6.10
2018-03-29T04:57:15.876Z,6.03
2018-03-29T04:59:44.213Z,5.98
2018-03-29T05:02:13.422Z,5.91
2018-03-29T05:04:41.764Z,5.87
2018-03-29T05:07:10.233Z,5.81
2018-03-29T05:09:38.651Z,5.79
2018-03-29T05:12:07.487Z,5.79
2018-03-29T05:14:35.860Z,5.77
2018-03-29T05:17:04.185Z,5.73
2018-03-29T05:19:32.520Z,5.71
2018-03-29T05:22:00.854Z,5.75
2018-03-29T05:24:30.063Z,5.88
2018-03-29T05:26:59.130Z,5.99
2018-03-29T05:29:27.517Z,6.11
2018-03-29T05:31:55.864Z,6.26
2018-03-29T05:34:24.304Z,6.36
2018-03-29T05:36:52.944Z,6.46
2018-03-29T05:39:21.825Z,6.56
2018-03-29T05:41:50.214Z,6.66
2018-03-29T05:44:18.552Z,6.72
2018-03-29T05:46:47.027Z,6.75
2018-03-29T05:49:15.449Z,6.81
2018-03-29T05:51:43.840Z,6.87
2018-03-29T05:54:12.188Z,6.89
2018-03-29T05:56:40.541Z,6.93
2018-03-29T05:59:08.897Z,6.99
2018-03-29T06:01:37.244Z,7.05
2018-03-29T06:04:06.386Z,7.13
2018-03-29T06:06:34.772Z,7.20
2018-03-29T06:09:03.220Z,7.26
2018-03-29T06:11:31.608Z,7.31
2018-03-29T06:14:05.603Z,7.38
2018-03-29T06:16:39.537Z,7.45
2018-03-29T06:19:09.700Z,7.49
2018-03-29T06:21:38.126Z,7.51
2018-03-29T06:24:06.512Z,7.54
2018-03-29T06:26:34.860Z,7.57
2018-03-29T06:29:04.007Z,7.60
2018-03-29T06:31:32.331Z,7.66
2018-03-29T06:34:00.700Z,7.75
2018-03-29T06:36:29.044Z,7.83
2018-03-29T06:38:57.397Z,7.89
2018-03-29T06:41:26.483Z,7.91
2018-03-29T06:43:54.861Z,7.93
2018-03-29T06:46:23.290Z,7.88
2018-03-29T06:48:52.381Z,7.84
2018-03-29T06:51:20.731Z,7.81
2018-03-29T06:53:49.108Z,7.78
2018-03-29T06:56:18.266Z,7.80
2018-03-29T06:58:46.578Z,7.86
2018-03-29T07:01:14.895Z,7.88
2018-03-29T07:03:43.264Z,7.91
2018-03-29T07:06:12.403Z,7.94
2018-03-29T07:08:40.724Z,7.99
2018-03-29T07:11:09.025Z,8.04
2018-03-29T07:13:37.524Z,8.06
2018-03-29T07:16:06.621Z,8.13
2018-03-29T07:18:35.731Z,8.21
2018-03-29T07:21:04.108Z,8.27
2018-03-29T07:23:32.450Z,8.32
2018-03-29T07:26:00.762Z,8.39
2018-03-29T07:28:30.173Z,8.42
2018-03-29T07:30:58.613Z,8.47
2018-03-29T07:33:26.952Z,8.57
2018-03-29T07:35:55.328Z,8.69
2018-03-29T07:38:23.644Z,8.81
2018-03-29T07:40:51.974Z,8.97
2018-03-29T07:43:21.076Z,9.21
2018-03-29T07:45:50.152Z,9.45
2018-03-29T07:48:18.500Z,9.74
2018-03-29T07:50:46.814Z,9.89
2018-03-29T07:53:15.164Z,10.03
2018-03-29T07:55:43.503Z,10.20
2018-03-29T07:58:12.638Z,10.34
2018-03-29T08:00:40.952Z,10.53
2018-03-29T08:03:10.047Z,10.94
2018-03-29T08:05:38.379Z,11.23
2018-03-29T08:08:07.311Z,11.57
2018-03-29T08:10:35.644Z,11.99
2018-03-29T08:13:03.991Z,12.19
2018-03-29T08:15:32.302Z,12.27
2018-03-29T08:18:01.398Z,12.09
2018-03-29T08:20:30.504Z,11.72
